Wednesday, November 22, 2017, 8:00 AM EST
Back to Local

KMVL, Morrisville Stowe State Airport

Location: Morrisville, VT, United States Lat: 44.533
Local Time: 8:00 AM EST (13:00 GMT) Lon: -72.617
Time Zone: US/Eastern Elev: 731 ft

Show me the last for .
Show Decoded

2017-11-22 06:54 METAR KMVL 221154Z AUTO 00000KT 10SM OVC110 M01/M03 A2989 RMK AO2 SLP131
                 T10111028 10006 21028 58002 TSNO =
2017-11-22 05:54 METAR KMVL 221054Z AUTO 00000KT 10SM CLR M02/M03 A2990 RMK AO2 SLP133 T10171028
                 TSNO =
2017-11-22 04:54 METAR KMVL 220954Z AUTO 21003KT 10SM CLR M02/M03 A2990 RMK AO2 SLP134 T10171028
                 TSNO =
2017-11-22 03:54 METAR KMVL 220854Z AUTO 21003KT 10SM CLR M02/M03 A2990 RMK AO2 SLP131 T10221033
                 53002 TSNO =
2017-11-22 02:54 METAR KMVL 220754Z AUTO 00000KT 10SM CLR M02/M03 A2988 RMK AO2 SLP126 T10171033
                 TSNO =
2017-11-22 00:54 METAR KMVL 220554Z AUTO 00000KT 10SM CLR M01/M03 A2989 RMK AO2 SLP128 T10111033
                 10028 21028 58001 TSNO =
2017-11-21 23:54 METAR KMVL 220454Z AUTO 00000KT 10SM CLR M01/M03 A2989 RMK AO2 SLP129 T10061033
                 401171089 TSNO =
2017-11-21 22:54 METAR KMVL 220354Z AUTO 00000KT 10SM CLR M02/M04 A2989 RMK AO2 SLP130 T10171044
                 TSNO =
2017-11-21 20:54 METAR KMVL 220154Z AUTO 00000KT 10SM CLR M01/M04 A2989 RMK AO2 SLP131 T10111044
                 TSNO =
2017-11-21 19:54 METAR KMVL 220054Z AUTO 00000KT 10SM CLR 01/M04 A2988 RMK AO2 SLP129 T00111039
                 TSNO =
2017-11-21 18:54 METAR KMVL 212354Z AUTO 00000KT 10SM CLR 02/M04 A2987 RMK AO2 SLP126 T00171039
                 10117 20006 51015 TSNO =
2017-11-21 17:54 METAR KMVL 212254Z AUTO 00000KT 10SM CLR 01/M04 A2985 RMK AO2 SLP120 T00111039
                 TSNO =
2017-11-21 16:54 METAR KMVL 212154Z AUTO 19004KT 10SM CLR 02/M04 A2984 RMK AO2 SLP116 T00171039
                 TSNO =
2017-11-21 15:54 METAR KMVL 212054Z AUTO 21006KT 10SM CLR 10/M08 A2982 RMK AO2 SLP107 T01001078
                 53009 TSNO =
2017-11-21 14:54 METAR KMVL 211954Z AUTO 20011G17KT 10SM CLR 11/M07 A2979 RMK AO2 SLP095
                 T01111072 TSNO =
2017-11-21 13:54 METAR KMVL 211854Z AUTO 20009KT 10SM CLR 10/M05 A2978 RMK AO2 SLP092 T01001050
                 TSNO =
2017-11-21 12:54 METAR KMVL 211754Z AUTO 20007KT 10SM CLR 09/M04 A2979 RMK AO2 SLP098 T00941039
                 10100 21089 56034 TSNO =
2017-11-21 11:54 METAR KMVL 211654Z AUTO 20013G19KT 10SM CLR 09/M04 A2982 RMK AO2 SLP106
                 T00941039 TSNO =
2017-11-21 10:54 METAR KMVL 211554Z AUTO 13004KT 10SM CLR 06/M02 A2985 RMK AO2 SLP119 T00561017
                 TSNO =
2017-11-21 09:54 METAR KMVL 211454Z AUTO 17003KT 10SM CLR 02/M03 A2990 RMK AO2 SLP134 T00221033
                 58019 TSNO =
2017-11-21 08:54 METAR KMVL 211354Z AUTO 20005KT 10SM CLR M03/M05 A2993 RMK AO2 SLP147 T10281050
                 TSNO =

Support USWX by starting your Amazon purchase here.